createdAt,value
2018-04-28T00:00:37.370Z,1006.75
2018-04-28T00:01:37.405Z,1006.76
2018-04-28T00:02:37.420Z,1006.76
2018-04-28T00:03:37.792Z,1006.72
2018-04-28T00:04:37.817Z,1006.7
2018-04-28T00:05:37.990Z,1006.7
2018-04-28T00:06:38.032Z,1006.71
2018-04-28T00:07:37.922Z,1006.71
2018-04-28T00:08:38.275Z,1006.7
2018-04-28T00:09:37.960Z,1006.69
2018-04-28T00:10:37.974Z,1006.67
2018-04-28T00:11:38.411Z,1006.7
2018-04-28T00:12:38.422Z,1006.74
2018-04-28T00:13:38.621Z,1006.68
2018-04-28T00:14:38.653Z,1006.67
2018-04-28T00:15:38.677Z,1006.66
2018-04-28T00:16:38.870Z,1006.68
2018-04-28T00:17:38.897Z,1006.66
2018-04-28T00:18:38.920Z,1006.64
2018-04-28T00:19:38.952Z,1006.63
2018-04-28T00:20:38.983Z,1006.64
2018-04-28T00:21:39.404Z,1006.63
2018-04-28T00:22:39.564Z,1006.64
2018-04-28T00:23:39.899Z,1006.59
2018-04-28T00:24:39.917Z,1006.55
2018-04-28T00:25:39.946Z,1006.57
2018-04-28T00:26:40.085Z,1006.53
2018-04-28T00:27:40.109Z,1006.5
2018-04-28T00:28:40.486Z,1006.5
2018-04-28T00:29:40.989Z,1006.53
2018-04-28T00:30:41.174Z,1006.49
2018-04-28T00:31:41.597Z,1006.49
2018-04-28T00:32:41.857Z,1006.48
2018-04-28T00:33:41.939Z,1006.46
2018-04-28T00:34:42.331Z,1006.51
2018-04-28T00:35:42.436Z,1006.5
2018-04-28T00:36:42.376Z,1006.46
2018-04-28T00:37:42.521Z,1006.55
2018-04-28T00:38:42.445Z,1006.48
2018-04-28T00:39:42.463Z,1006.49
2018-04-28T00:40:42.488Z,1006.47
2018-04-28T00:41:42.857Z,1006.45
2018-04-28T00:42:42.995Z,1006.47
2018-04-28T00:43:43.053Z,1006.5
2018-04-28T00:44:42.934Z,1006.47
2018-04-28T00:45:43.274Z,1006.5
2018-04-28T00:46:43.003Z,1006.49
2018-04-28T00:47:43.025Z,1006.49
2018-04-28T00:48:43.061Z,1006.49
2018-04-28T00:49:43.133Z,1006.48
2018-04-28T00:50:43.517Z,1006.45
2018-04-28T00:51:43.658Z,1006.45
2018-04-28T00:52:43.728Z,1006.42
2018-04-28T00:53:43.843Z,1006.43
2018-04-28T00:54:44.300Z,1006.49
2018-04-28T00:55:44.143Z,1006.47
2018-04-28T00:56:44.303Z,1006.47
2018-04-28T00:57:44.769Z,1006.42
2018-04-28T00:58:44.813Z,1006.42
2018-04-28T00:59:45.257Z,1006.36
2018-04-28T01:00:45.280Z,1006.38
2018-04-28T01:01:45.459Z,1006.39
2018-04-28T01:02:45.488Z,1006.32
2018-04-28T01:03:45.512Z,1006.4
2018-04-28T01:04:45.540Z,1006.38
2018-04-28T01:05:45.572Z,1006.48
2018-04-28T01:06:45.632Z,1006.48
2018-04-28T01:07:46.135Z,1006.46
2018-04-28T01:08:46.254Z,1006.44
2018-04-28T01:09:46.169Z,1006.44
2018-04-28T01:10:46.199Z,1006.47
2018-04-28T01:11:46.599Z,1006.47
2018-04-28T01:12:46.633Z,1006.48
2018-04-28T01:13:46.656Z,1006.48
2018-04-28T01:14:46.683Z,1006.44
2018-04-28T01:15:46.889Z,1006.43
2018-04-28T01:16:46.917Z,1006.46
2018-04-28T01:17:46.943Z,1006.38
2018-04-28T01:18:47.805Z,1006.46
2018-04-28T01:19:47.662Z,1006.49
2018-04-28T01:20:48.122Z,1006.44
2018-04-28T01:21:48.099Z,1006.45
2018-04-28T01:22:48.547Z,1006.49
2018-04-28T01:23:48.575Z,1006.42
2018-04-28T01:24:48.674Z,1006.43
2018-04-28T01:25:48.627Z,1006.44
2018-04-28T01:26:48.661Z,1006.45
2018-04-28T01:27:48.981Z,1006.45
2018-04-28T01:28:49.045Z,1006.44
2018-04-28T01:29:49.025Z,1006.42
2018-04-28T01:30:49.055Z,1006.46
2018-04-28T01:31:49.553Z,1006.42
2018-04-28T01:32:49.578Z,1006.38
2018-04-28T01:33:50.035Z,1006.4
2018-04-28T01:34:50.287Z,1006.42
2018-04-28T01:35:50.274Z,1006.42
2018-04-28T01:36:50.298Z,1006.47
2018-04-28T01:37:50.550Z,1006.42
2018-04-28T01:38:50.815Z,1006.41
2018-04-28T01:39:50.838Z,1006.41
2018-04-28T01:40:50.862Z,1006.39
2018-04-28T01:41:50.893Z,1006.37
2018-04-28T01:42:50.947Z,1006.42
2018-04-28T01:43:51.016Z,1006.37
2018-04-28T01:44:50.992Z,1006.4
2018-04-28T01:45:51.025Z,1006.41
2018-04-28T01:46:51.493Z,1006.37
2018-04-28T01:47:51.724Z,1006.37
2018-04-28T01:48:51.721Z,1006.41
2018-04-28T01:49:51.749Z,1006.39
2018-04-28T01:50:51.780Z,1006.36
2018-04-28T01:51:51.810Z,1006.44
2018-04-28T01:52:52.010Z,1006.44
2018-04-28T01:53:52.212Z,1006.4
2018-04-28T01:54:52.426Z,1006.41
2018-04-28T01:55:52.440Z,1006.44
2018-04-28T01:56:52.766Z,1006.41
2018-04-28T01:57:52.952Z,1006.4
2018-04-28T01:58:52.974Z,1006.42
2018-04-28T01:59:53.001Z,1006.45
2018-04-28T02:00:53.262Z,1006.46
2018-04-28T02:01:53.194Z,1006.46
2018-04-28T02:02:53.087Z,1006.42
2018-04-28T02:03:53.564Z,1006.43
2018-04-28T02:04:53.599Z,1006.4
2018-04-28T02:05:53.620Z,1006.4
2018-04-28T02:06:53.833Z,1006.38
2018-04-28T02:07:54.304Z,1006.39
2018-04-28T02:08:54.397Z,1006.37
2018-04-28T02:09:54.362Z,1006.36
2018-04-28T02:10:54.394Z,1006.34
2018-04-28T02:11:54.616Z,1006.31
2018-04-28T02:12:54.655Z,1006.37
2018-04-28T02:13:54.672Z,1006.33
2018-04-28T02:14:54.720Z,1006.32
2018-04-28T02:15:54.768Z,1006.37
2018-04-28T02:16:54.799Z,1006.35
2018-04-28T02:17:55.262Z,1006.34
2018-04-28T02:18:55.353Z,1006.32
2018-04-28T02:19:55.343Z,1006.32
2018-04-28T02:20:55.406Z,1006.3
2018-04-28T02:21:55.404Z,1006.34
2018-04-28T02:22:55.441Z,1006.3
2018-04-28T02:23:55.456Z,1006.31
2018-04-28T02:24:55.912Z,1006.3
2018-04-28T02:25:55.998Z,1006.33
2018-04-28T02:26:55.992Z,1006.31
2018-04-28T02:27:56.013Z,1006.33
2018-04-28T02:28:56.051Z,1006.32
2018-04-28T02:29:56.087Z,1006.38
2018-04-28T02:30:56.111Z,1006.36
2018-04-28T02:31:56.160Z,1006.42
2018-04-28T02:32:56.183Z,1006.43
2018-04-28T02:33:56.186Z,1006.47
2018-04-28T02:34:56.215Z,1006.47
2018-04-28T02:35:56.523Z,1006.49
2018-04-28T02:36:56.535Z,1006.5
2018-04-28T02:37:57.522Z,1006.5
2018-04-28T02:38:57.255Z,1006.47
2018-04-28T02:39:57.169Z,1006.48
2018-04-28T02:40:57.195Z,1006.43
2018-04-28T02:41:57.871Z,1006.44
2018-04-28T02:42:57.926Z,1006.46
2018-04-28T02:43:57.886Z,1006.38
2018-04-28T02:44:57.959Z,1006.41
2018-04-28T02:45:57.958Z,1006.44
2018-04-28T02:46:58.188Z,1006.46
2018-04-28T02:47:58.174Z,1006.43
2018-04-28T02:48:58.099Z,1006.42
2018-04-28T02:49:58.189Z,1006.4
2018-04-28T02:50:58.116Z,1006.43
2018-04-28T02:51:58.085Z,1006.45
2018-04-28T02:52:58.107Z,1006.45
2018-04-28T02:53:58.134Z,1006.46
2018-04-28T02:54:58.161Z,1006.45
2018-04-28T02:55:58.189Z,1006.52
2018-04-28T02:56:58.215Z,1006.45
2018-04-28T02:57:58.248Z,1006.44
2018-04-28T02:58:58.276Z,1006.46
2018-04-28T02:59:58.300Z,1006.47
2018-04-28T04:00:20.292Z,1006.79
2018-04-28T04:01:20.311Z,1006.78
2018-04-28T04:02:20.790Z,1006.77
2018-04-28T04:03:21.254Z,1006.75
2018-04-28T04:04:20.862Z,1006.72
2018-04-28T04:05:20.856Z,1006.71
2018-04-28T04:06:21.247Z,1006.74
2018-04-28T04:07:21.215Z,1006.7
2018-04-28T04:08:21.582Z,1006.75
2018-04-28T04:09:21.964Z,1006.7
2018-04-28T04:10:22.105Z,1006.73
2018-04-28T04:11:22.134Z,1006.72
2018-04-28T04:12:22.300Z,1006.72
2018-04-28T04:13:22.320Z,1006.7
2018-04-28T04:14:22.441Z,1006.7
2018-04-28T04:15:22.465Z,1006.74
2018-04-28T04:16:22.775Z,1006.81
2018-04-28T04:17:22.519Z,1006.8
2018-04-28T04:18:22.531Z,1006.81
2018-04-28T04:19:22.580Z,1006.82
2018-04-28T04:20:22.605Z,1006.86
2018-04-28T04:21:22.994Z,1006.88
2018-04-28T04:22:23.386Z,1006.91
2018-04-28T04:23:23.409Z,1006.91
2018-04-28T04:24:23.416Z,1006.86
2018-04-28T04:25:23.655Z,1006.92
2018-04-28T04:26:24.174Z,1006.89
2018-04-28T04:27:24.500Z,1006.87
2018-04-28T04:28:24.902Z,1006.91
2018-04-28T04:29:25.378Z,1006.84
2018-04-28T04:30:25.392Z,1006.87
2018-04-28T04:31:25.746Z,1006.91
2018-04-28T04:32:25.861Z,1006.94
2018-04-28T04:33:25.887Z,1006.94
2018-04-28T04:34:26.878Z,1006.91
2018-04-28T04:35:26.783Z,1006.94
2018-04-28T04:36:26.802Z,1006.84
2018-04-28T04:37:26.867Z,1006.91
2018-04-28T04:38:26.900Z,1006.9
2018-04-28T04:39:26.908Z,1006.9
2018-04-28T04:40:27.016Z,1006.97
2018-04-28T04:41:27.157Z,1006.99
2018-04-28T04:42:27.188Z,1007.04
2018-04-28T04:43:27.213Z,1007.01
2018-04-28T04:44:27.245Z,1007.02
2018-04-28T04:45:27.663Z,1007.07
2018-04-28T04:46:27.693Z,1007.07
2018-04-28T04:47:27.799Z,1007.14
2018-04-28T04:48:28.201Z,1007.09
2018-04-28T04:49:28.580Z,1007.08
2018-04-28T04:50:28.600Z,1007.1
2018-04-28T04:51:28.973Z,1007.07
2018-04-28T04:52:29.000Z,1007.13
2018-04-28T04:53:29.397Z,1007.08
2018-04-28T04:54:29.417Z,1007.09
2018-04-28T04:55:29.445Z,1007.14
2018-04-28T04:56:29.474Z,1007.19
2018-04-28T04:57:29.558Z,1007.15
2018-04-28T04:58:29.589Z,1007.18
2018-04-28T04:59:29.760Z,1007.23
2018-04-28T05:00:30.917Z,1007.27
2018-04-28T05:01:30.937Z,1007.28
2018-04-28T06:00:02.766Z,1007.84
2018-04-28T06:00:49.142Z,1007.93
2018-04-28T06:01:49.354Z,1007.87
2018-04-28T06:02:49.778Z,1007.91
2018-04-28T06:03:50.025Z,1007.9
2018-04-28T06:04:50.037Z,1007.95
2018-04-28T06:05:50.428Z,1007.97
2018-04-28T06:06:50.971Z,1007.93
2018-04-28T06:07:50.968Z,1007.96
2018-04-28T06:08:50.996Z,1007.94
2018-04-28T06:09:51.501Z,1007.92
2018-04-28T06:10:51.531Z,1007.98
2018-04-28T06:11:51.571Z,1007.94
2018-04-28T06:12:52.350Z,1007.98
2018-04-28T06:13:52.144Z,1008.01
2018-04-28T06:14:52.544Z,1008.17
2018-04-28T06:15:52.542Z,1008.06
2018-04-28T06:16:53.749Z,1008.19
2018-04-28T06:17:53.507Z,1008.05
2018-04-28T06:18:53.623Z,1008.04
2018-04-28T06:19:53.696Z,1008.45
2018-04-28T06:20:53.651Z,1008.4
2018-04-28T06:21:54.037Z,1008.04
2018-04-28T06:22:53.696Z,1008.09
2018-04-28T06:23:53.686Z,1008.45
2018-04-28T06:24:54.031Z,1008.41
2018-04-28T06:25:54.099Z,1008.4
2018-04-28T06:26:53.915Z,1008.4
2018-04-28T06:27:54.072Z,1008.44
2018-04-28T06:28:54.363Z,1008.39
2018-04-28T06:29:54.401Z,1008.73
2018-04-28T06:30:55.019Z,1008.8
2018-04-28T06:31:54.908Z,1008.74
2018-04-28T06:32:55.087Z,1008.41
2018-04-28T06:33:55.123Z,1008.47
2018-04-28T06:34:55.687Z,1008.69
2018-04-28T06:35:55.577Z,1008.69
2018-04-28T06:36:55.611Z,1008.77
2018-04-28T06:37:55.645Z,1008.72
2018-04-28T06:38:56.026Z,1008.67
2018-04-28T06:39:56.185Z,1008.58
2018-04-28T06:40:56.491Z,1008.75
2018-04-28T06:41:56.953Z,1008.84
2018-04-28T06:42:56.978Z,1008.82
2018-04-28T06:43:57.477Z,1008.77
2018-04-28T06:44:57.506Z,1008.69
2018-04-28T06:45:57.521Z,1008.76
2018-04-28T06:46:57.553Z,1008.72
2018-04-28T06:47:57.590Z,1008.74
2018-04-28T06:48:57.848Z,1008.65
2018-04-28T06:49:57.997Z,1008.61
2018-04-28T06:50:58.165Z,1008.56
2018-04-28T06:51:58.165Z,1008.69
2018-04-28T06:52:58.194Z,1008.63
2018-04-28T06:53:58.368Z,1008.68
2018-04-28T06:54:58.387Z,1008.39
2018-04-28T06:55:58.424Z,1008.65
2018-04-28T06:56:58.454Z,1008.56
2018-04-28T06:57:58.760Z,1008.56
2018-04-28T06:58:58.903Z,1008.51
2018-04-28T06:59:59.327Z,1008.55
2018-04-28T07:00:59.638Z,1008.56
2018-04-28T07:01:59.765Z,1008.59
2018-04-28T08:00:05.370Z,1008.63
2018-04-28T09:00:27.489Z,1009.27
2018-04-28T09:01:27.769Z,1009.3
2018-04-28T09:02:27.569Z,1009.34
2018-04-28T09:03:27.644Z,1009.29
2018-04-28T09:04:27.714Z,1009.4
2018-04-28T09:05:27.695Z,1009.43
2018-04-28T09:06:27.773Z,1009.38
2018-04-28T09:07:28.004Z,1009.31
2018-04-28T09:08:28.136Z,1009.4
2018-04-28T09:09:28.727Z,1009.36
2018-04-28T09:10:28.776Z,1009.26
2018-04-28T09:11:28.722Z,1009.35
2018-04-28T09:12:29.486Z,1009.45
2018-04-28T09:13:29.079Z,1009.47
2018-04-28T09:14:29.130Z,1009.47
2018-04-28T09:15:29.160Z,1009.43
2018-04-28T09:16:29.211Z,1009.38
2018-04-28T09:17:29.248Z,1009.39
2018-04-28T09:18:29.341Z,1009.43
2018-04-28T09:19:29.459Z,1009.43
2018-04-28T09:20:29.440Z,1009.38
2018-04-28T09:21:29.552Z,1009.37
2018-04-28T09:22:29.765Z,1009.2
2018-04-28T09:23:29.818Z,1009.09
2018-04-28T09:24:29.848Z,1008.98
2018-04-28T09:25:29.930Z,1008.9
2018-04-28T09:26:29.948Z,1008.86
2018-04-28T09:27:29.682Z,1008.81
2018-04-28T09:28:29.921Z,1008.87
2018-04-28T09:29:29.789Z,1008.85
2018-04-28T09:30:29.770Z,1008.83
2018-04-28T09:31:29.878Z,1008.82
2018-04-28T09:32:29.890Z,1008.79
2018-04-28T09:33:29.905Z,1008.81
2018-04-28T09:34:29.944Z,1008.84
2018-04-28T09:35:30.118Z,1008.78
2018-04-28T09:36:29.997Z,1008.81
2018-04-28T09:37:30.136Z,1008.82
2018-04-28T09:38:30.727Z,1008.8
2018-04-28T09:39:30.824Z,1008.87
2018-04-28T09:40:30.898Z,1008.8
2018-04-28T09:41:30.911Z,1008.83
2018-04-28T09:42:31.002Z,1008.79
2018-04-28T09:43:31.312Z,1008.79
2018-04-28T09:44:31.278Z,1008.77
2018-04-28T09:45:31.317Z,1008.76
2018-04-28T09:46:31.428Z,1008.78
2018-04-28T09:47:31.462Z,1008.77
2018-04-28T09:48:31.444Z,1008.8
2018-04-28T09:49:31.549Z,1008.82
2018-04-28T09:50:31.224Z,1008.87
2018-04-28T09:51:31.270Z,1008.87
2018-04-28T09:52:31.307Z,1008.83
2018-04-28T09:53:31.692Z,1008.81
2018-04-28T09:54:31.369Z,1008.84
2018-04-28T09:55:31.694Z,1008.85
2018-04-28T09:56:32.036Z,1008.87
2018-04-28T09:57:32.082Z,1008.85
2018-04-28T09:58:31.842Z,1008.91
2018-04-28T09:59:32.152Z,1008.88
2018-04-28T11:00:07.449Z,1008.64
2018-04-28T11:01:07.049Z,1008.65
2018-04-28T11:02:07.346Z,1008.7
2018-04-28T11:03:07.128Z,1008.67
2018-04-28T11:04:07.166Z,1008.6
2018-04-28T11:05:07.338Z,1008.65
2018-04-28T11:06:07.374Z,1008.66
2018-04-28T11:07:07.426Z,1008.66
2018-04-28T11:08:07.461Z,1008.64
2018-04-28T11:09:07.515Z,1008.61
2018-04-28T11:10:07.730Z,1008.6
2018-04-28T11:11:07.563Z,1008.61
2018-04-28T11:12:07.608Z,1008.58
2018-04-28T11:13:08.031Z,1008.58
2018-04-28T11:14:08.342Z,1008.59
2018-04-28T11:15:08.358Z,1008.63
2018-04-28T11:16:08.415Z,1008.65
2018-04-28T11:17:08.583Z,1008.58
2018-04-28T11:18:08.622Z,1008.55
2018-04-28T11:19:08.659Z,1008.54
2018-04-28T11:20:08.863Z,1008.56
2018-04-28T11:21:08.898Z,1008.58
2018-04-28T11:22:08.935Z,1008.58
2018-04-28T11:23:09.096Z,1008.54
2018-04-28T11:24:09.509Z,1008.49
2018-04-28T11:25:09.530Z,1008.53
2018-04-28T11:26:09.597Z,1008.46
2018-04-28T11:27:09.628Z,1008.46
2018-04-28T11:28:09.634Z,1008.49
2018-04-28T11:29:09.985Z,1008.54
2018-04-28T11:30:09.715Z,1008.51
2018-04-28T11:31:09.747Z,1008.49
2018-04-28T11:32:09.789Z,1008.49
2018-04-28T11:33:09.824Z,1008.46
2018-04-28T11:34:09.863Z,1008.4
2018-04-28T11:35:09.983Z,1008.42
2018-04-28T11:36:10.118Z,1008.43
2018-04-28T11:37:10.147Z,1008.41
2018-04-28T11:38:10.201Z,1008.41
2018-04-28T11:39:10.420Z,1008.44
2018-04-28T11:40:10.786Z,1008.38
2018-04-28T11:41:10.950Z,1008.3
2018-04-28T11:42:11.393Z,1008.31
2018-04-28T11:43:11.917Z,1008.3
2018-04-28T11:44:11.910Z,1008.45
2018-04-28T11:45:12.064Z,1008.42
2018-04-28T11:46:12.181Z,1008.4
2018-04-28T11:47:12.232Z,1008.42
2018-04-28T11:48:12.598Z,1008.36
2018-04-28T11:49:12.636Z,1008.3
2018-04-28T11:50:13.119Z,1008.27
2018-04-28T11:51:13.309Z,1008.3
2018-04-28T11:52:13.372Z,1008.29
2018-04-28T11:53:13.636Z,1008.27
2018-04-28T11:54:13.657Z,1008.32
2018-04-28T11:55:13.689Z,1008.35
2018-04-28T11:56:13.936Z,1008.35
2018-04-28T11:57:13.981Z,1008.35
2018-04-28T11:58:14.407Z,1008.31
2018-04-28T11:59:14.507Z,1008.23
2018-04-28T12:00:14.619Z,1008.24
2018-04-28T12:01:15.003Z,1008.25
2018-04-28T13:00:17.306Z,1007.92
2018-04-28T13:01:17.334Z,1007.91
2018-04-28T13:02:17.735Z,1007.91
2018-04-28T13:03:17.899Z,1008.02
2018-04-28T13:04:18.198Z,1007.96
2018-04-28T13:05:18.474Z,1007.84
2018-04-28T13:06:18.714Z,1007.88
2018-04-28T13:07:18.708Z,1007.92
2018-04-28T13:08:18.745Z,1007.96
2018-04-28T13:09:18.917Z,1007.89
2018-04-28T13:10:19.308Z,1007.9
2018-04-28T13:11:20.031Z,1007.83
2018-04-28T13:12:20.068Z,1007.84
2018-04-28T13:13:20.456Z,1007.9
2018-04-28T13:14:20.484Z,1007.87
2018-04-28T13:15:20.520Z,1007.89
2018-04-28T13:16:20.879Z,1007.85
2018-04-28T13:17:20.952Z,1007.85
2018-04-28T13:18:20.951Z,1007.8
2018-04-28T13:19:21.214Z,1007.89
2018-04-28T13:20:21.355Z,1007.85
2018-04-28T13:21:21.549Z,1007.8
2018-04-28T13:22:21.629Z,1007.82
2018-04-28T13:23:21.634Z,1007.77
2018-04-28T13:24:21.660Z,1007.74
2018-04-28T13:25:22.155Z,1007.75
2018-04-28T13:26:22.190Z,1007.8
2018-04-28T13:28:22.256Z,1007.8
2018-04-28T13:29:22.298Z,1007.89
2018-04-28T13:30:22.336Z,1007.91
2018-04-28T13:31:22.591Z,1007.92
2018-04-28T13:32:22.404Z,1007.89
2018-04-28T13:33:22.450Z,1007.91
2018-04-28T13:34:22.474Z,1007.9
2018-04-28T13:35:22.505Z,1007.97
2018-04-28T13:36:22.543Z,1007.95
2018-04-28T13:37:22.580Z,1007.9
2018-04-28T13:38:22.612Z,1007.87
2018-04-28T13:39:22.647Z,1007.89
2018-04-28T13:40:22.690Z,1007.86
2018-04-28T13:41:22.724Z,1007.84
2018-04-28T13:42:22.887Z,1007.84
2018-04-28T13:43:22.932Z,1007.83
2018-04-28T13:44:23.099Z,1007.88
2018-04-28T13:45:23.493Z,1007.83
2018-04-28T13:46:23.532Z,1007.86
2018-04-28T13:47:23.587Z,1007.79
2018-04-28T13:48:23.832Z,1007.77
2018-04-28T13:49:24.426Z,1007.73
2018-04-28T13:50:24.367Z,1007.71
2018-04-28T13:51:24.784Z,1007.75
2018-04-28T13:52:24.967Z,1007.77
2018-04-28T13:53:25.127Z,1007.74
2018-04-28T13:54:25.432Z,1007.71
2018-04-28T13:55:25.406Z,1007.68
2018-04-28T13:56:25.535Z,1007.72
2018-04-28T13:57:25.938Z,1007.68
2018-04-28T13:58:25.978Z,1007.66
2018-04-28T13:59:26.060Z,1007.66
2018-04-28T14:00:26.053Z,1007.69
2018-04-28T14:01:26.341Z,1007.68
2018-04-28T14:02:26.417Z,1007.74
2018-04-28T14:03:26.422Z,1007.65
2018-04-28T14:04:26.185Z,1007.67
2018-04-28T14:05:26.250Z,1007.64
2018-04-28T14:06:26.430Z,1007.65
2018-04-28T14:07:26.612Z,1007.69
2018-04-28T14:08:26.650Z,1007.67
2018-04-28T14:09:26.688Z,1007.73
2018-04-28T14:10:26.707Z,1007.69
2018-04-28T14:11:26.760Z,1007.68
2018-04-28T14:12:26.938Z,1007.65
2018-04-28T14:13:26.968Z,1007.68
2018-04-28T14:14:27.056Z,1007.58
2018-04-28T14:15:27.103Z,1007.67
2018-04-28T14:16:27.138Z,1007.65
2018-04-28T14:17:27.173Z,1007.64
2018-04-28T14:18:27.206Z,1007.68
2018-04-28T14:19:27.273Z,1007.63
2018-04-28T14:20:27.437Z,1007.64
2018-04-28T14:21:27.736Z,1007.63
2018-04-28T14:22:27.768Z,1007.56
2018-04-28T14:23:27.941Z,1007.57
2018-04-28T14:24:28.304Z,1007.59
2018-04-28T14:25:29.100Z,1007.61
2018-04-28T14:26:29.115Z,1007.61
2018-04-28T14:27:29.264Z,1007.66
2018-04-28T14:28:29.149Z,1007.64
2018-04-28T14:29:29.543Z,1007.64
2018-04-28T14:30:29.567Z,1007.67
2018-04-28T14:31:29.602Z,1007.57
2018-04-28T14:32:29.689Z,1007.69
2018-04-28T14:33:29.675Z,1007.64
2018-04-28T14:34:29.711Z,1007.61
2018-04-28T14:35:29.740Z,1007.65
2018-04-28T14:36:29.934Z,1007.62
2018-04-28T14:37:29.959Z,1007.58
2018-04-28T14:38:29.996Z,1007.54
2018-04-28T14:39:30.281Z,1007.55
2018-04-28T14:40:30.700Z,1007.5
2018-04-28T14:41:31.131Z,1007.52
2018-04-28T14:42:31.293Z,1007.47
2018-04-28T14:43:31.465Z,1007.5
2018-04-28T14:44:31.683Z,1007.5
2018-04-28T14:45:32.114Z,1007.49
2018-04-28T14:46:32.509Z,1007.53
2018-04-28T14:47:32.539Z,1007.44
2018-04-28T14:48:32.569Z,1007.45
2018-04-28T14:49:32.917Z,1007.35
2018-04-28T14:50:32.660Z,1007.34
2018-04-28T14:51:33.007Z,1007.35
2018-04-28T14:52:32.749Z,1007.43
2018-04-28T14:53:32.741Z,1007.39
2018-04-28T14:54:32.788Z,1007.41
2018-04-28T14:55:32.813Z,1007.48
2018-04-28T14:56:33.242Z,1007.48
2018-04-28T14:57:33.290Z,1007.54
2018-04-28T14:58:33.409Z,1007.49
2018-04-28T14:59:33.832Z,1007.58
2018-04-28T15:00:34.267Z,1007.53
2018-04-28T15:01:34.312Z,1007.5
2018-04-28T16:00:06.328Z,1007.7
2018-04-28T16:00:53.143Z,1007.66
2018-04-28T16:01:53.524Z,1007.67
2018-04-28T16:02:53.554Z,1007.64
2018-04-28T16:03:53.592Z,1007.65
2018-04-28T16:04:53.712Z,1007.74
2018-04-28T16:05:54.098Z,1007.65
2018-04-28T16:06:54.123Z,1007.67
2018-04-28T16:07:54.183Z,1007.67
2018-04-28T16:08:54.216Z,1007.72
2018-04-28T16:09:54.240Z,1007.67
2018-04-28T16:10:54.966Z,1007.63
2018-04-28T16:11:54.955Z,1007.71
2018-04-28T16:12:54.989Z,1007.77
2018-04-28T16:13:55.387Z,1007.7
2018-04-28T16:14:55.431Z,1007.73
2018-04-28T16:15:55.494Z,1007.73
2018-04-28T16:16:55.706Z,1007.76
2018-04-28T16:17:55.748Z,1007.85
2018-04-28T16:18:55.788Z,1007.81
2018-04-28T16:19:55.836Z,1007.78
2018-04-28T16:20:55.852Z,1007.76
2018-04-28T16:21:56.015Z,1007.76
2018-04-28T16:22:56.216Z,1007.79
2018-04-28T16:23:56.348Z,1007.77
2018-04-28T16:24:56.401Z,1007.75
2018-04-28T16:25:56.419Z,1007.78
2018-04-28T16:26:56.568Z,1007.8
2018-04-28T16:27:56.594Z,1007.79
2018-04-28T16:28:57.018Z,1007.83
2018-04-28T16:29:57.463Z,1007.85
2018-04-28T16:30:57.493Z,1007.87
2018-04-28T16:31:57.698Z,1007.87
2018-04-28T16:32:57.721Z,1007.9
2018-04-28T16:33:57.749Z,1007.9
2018-04-28T16:34:58.197Z,1007.81
2018-04-28T16:35:58.233Z,1007.86
2018-04-28T16:36:58.285Z,1007.81
2018-04-28T16:37:58.288Z,1007.86
2018-04-28T16:38:58.731Z,1007.82
2018-04-28T16:39:58.755Z,1007.83
2018-04-28T16:40:58.792Z,1007.84
2018-04-28T16:41:58.828Z,1007.85
2018-04-28T16:42:59.235Z,1007.82
2018-04-28T16:43:59.423Z,1007.84
2018-04-28T16:44:59.476Z,1007.83
2018-04-28T16:45:59.495Z,1007.82
2018-04-28T16:46:59.675Z,1007.88
2018-04-28T16:47:59.692Z,1007.9
2018-04-28T16:48:59.905Z,1007.9
2018-04-28T16:49:59.972Z,1007.9
2018-04-28T16:51:00.026Z,1007.88
2018-04-28T16:52:00.369Z,1007.95
2018-04-28T16:53:00.501Z,1007.85
2018-04-28T16:54:00.513Z,1007.85
2018-04-28T16:55:00.684Z,1007.89
2018-04-28T16:56:01.306Z,1007.88
2018-04-28T16:57:01.249Z,1007.87
2018-04-28T16:58:01.086Z,1007.88
2018-04-28T16:59:01.131Z,1007.87
2018-04-28T17:00:01.226Z,1007.91
2018-04-28T17:01:01.126Z,1007.91
2018-04-28T17:02:01.154Z,1007.9
2018-04-28T17:03:01.449Z,1007.91
2018-04-28T17:04:01.517Z,1007.92
2018-04-28T17:05:01.921Z,1007.9
2018-04-28T17:06:01.939Z,1007.89
2018-04-28T17:07:01.971Z,1007.87
2018-04-28T17:08:02.249Z,1007.87
2018-04-28T17:09:02.254Z,1007.85
2018-04-28T17:10:02.482Z,1007.9
2018-04-28T17:11:02.559Z,1007.85
2018-04-28T17:12:02.577Z,1007.83
2018-04-28T17:13:02.785Z,1007.87
2018-04-28T17:14:02.823Z,1007.85
2018-04-28T17:15:02.858Z,1007.82
2018-04-28T17:16:03.280Z,1007.85
2018-04-28T17:17:02.959Z,1007.82
2018-04-28T17:18:03.012Z,1007.85
2018-04-28T17:19:02.989Z,1007.86
2018-04-28T17:20:03.031Z,1007.87
2018-04-28T17:21:03.073Z,1007.86
2018-04-28T17:22:03.622Z,1007.9
2018-04-28T17:23:03.691Z,1007.9
2018-04-28T17:24:03.688Z,1007.91
2018-04-28T17:25:03.866Z,1007.9
2018-04-28T17:26:03.768Z,1007.87
2018-04-28T17:27:03.785Z,1007.89
2018-04-28T17:28:03.829Z,1007.92
2018-04-28T17:29:04.144Z,1007.91
2018-04-28T17:30:03.988Z,1007.86
2018-04-28T17:31:04.049Z,1007.87
2018-04-28T17:32:04.040Z,1007.91
2018-04-28T17:33:04.076Z,1007.9
2018-04-28T17:34:04.262Z,1007.91
2018-04-28T17:35:04.220Z,1007.89
2018-04-28T17:36:04.712Z,1007.87
2018-04-28T17:37:04.774Z,1007.87
2018-04-28T17:38:04.753Z,1007.88
2018-04-28T17:39:04.793Z,1007.85
2018-04-28T17:40:04.835Z,1007.87
2018-04-28T17:41:04.847Z,1007.89
2018-04-28T17:42:04.892Z,1007.9
2018-04-28T17:43:04.933Z,1007.89
2018-04-28T17:44:04.973Z,1007.91
2018-04-28T17:45:05.258Z,1007.92
2018-04-28T17:46:05.298Z,1007.92
2018-04-28T17:47:05.320Z,1007.93
2018-04-28T17:48:05.362Z,1007.92
2018-04-28T17:49:05.403Z,1007.96
2018-04-28T17:50:05.729Z,1007.93
2018-04-28T17:51:05.781Z,1007.94
2018-04-28T17:52:05.819Z,1007.97
2018-04-28T17:53:05.846Z,1007.93
2018-04-28T17:54:06.087Z,1007.92
2018-04-28T17:55:06.176Z,1007.94
2018-04-28T17:56:06.224Z,1007.93
2018-04-28T17:57:06.246Z,1007.98
2018-04-28T17:58:06.641Z,1007.98
2018-04-28T17:59:06.697Z,1008
2018-04-28T18:00:07.423Z,1008.03
2018-04-28T19:00:03.426Z,1008.59
2018-04-28T20:00:09.842Z,1009.05
2018-04-28T20:01:09.882Z,1009.1
2018-04-28T20:02:10.118Z,1009.1
2018-04-28T20:03:10.151Z,1009.12
2018-04-28T20:04:10.506Z,1009.09
2018-04-28T20:05:10.377Z,1009.04
2018-04-28T20:06:10.258Z,1009.03
2018-04-28T20:07:10.299Z,1009.01
2018-04-28T20:08:10.624Z,1009.05
2018-04-28T20:09:10.364Z,1009.03
2018-04-28T20:10:10.827Z,1009.08
2018-04-28T20:11:10.856Z,1009.04
2018-04-28T20:12:11.334Z,1009.03
2018-04-28T20:13:11.780Z,1009.08
2018-04-28T20:14:11.837Z,1009
2018-04-28T20:15:11.863Z,1008.99
2018-04-28T20:16:11.941Z,1009.08
2018-04-28T20:17:11.917Z,1009.05
2018-04-28T20:18:12.054Z,1009.07
2018-04-28T20:19:12.267Z,1009.09
2018-04-28T20:20:12.046Z,1009.11
2018-04-28T20:21:12.500Z,1009.09
2018-04-28T20:22:12.596Z,1009.08
2018-04-28T20:23:12.581Z,1009.13
2018-04-28T20:24:12.716Z,1009.13
2018-04-28T20:25:12.638Z,1009.09
2018-04-28T20:26:12.496Z,1009.1
2018-04-28T20:27:12.732Z,1009.1
2018-04-28T20:28:12.571Z,1009.06
2018-04-28T20:29:12.898Z,1009.05
2018-04-28T20:30:12.985Z,1009.02
2018-04-28T20:31:13.186Z,1009.05
2018-04-28T20:32:12.930Z,1009.05
2018-04-28T20:33:13.654Z,1009.04
2018-04-28T20:34:13.884Z,1009.09
2018-04-28T20:35:13.908Z,1009.06
2018-04-28T20:36:13.705Z,1009.01
2018-04-28T20:37:13.715Z,1009
2018-04-28T20:38:13.971Z,1009.06
2018-04-28T20:39:14.034Z,1009.01
2018-04-28T20:40:14.056Z,1009.06
2018-04-28T20:41:14.122Z,1009.07
2018-04-28T20:42:13.845Z,1009.05
2018-04-28T20:43:13.882Z,1009.03
2018-04-28T20:44:14.186Z,1009.07
2018-04-28T20:45:13.956Z,1009.06
2018-04-28T20:46:14.226Z,1009.08
2018-04-28T20:47:14.283Z,1009.1
2018-04-28T20:48:14.347Z,1009.13
2018-04-28T20:49:14.304Z,1009.1
2018-04-28T20:50:14.403Z,1009.12
2018-04-28T20:51:14.451Z,1009.05
2018-04-28T20:52:14.443Z,1009.08
2018-04-28T20:53:14.565Z,1009.06
2018-04-28T20:54:14.340Z,1009.02
2018-04-28T20:55:14.275Z,1008.98
2018-04-28T20:56:14.300Z,1009.02
2018-04-28T20:57:14.335Z,1009.01